createdAt,value
2024-05-09T00:00:18.225Z,208.67
2024-05-09T00:00:53.891Z,206.00
2024-05-09T00:01:25.482Z,203.33
2024-05-09T00:01:56.971Z,202.00
2024-05-09T00:02:28.563Z,202.67
2024-05-09T00:03:00.108Z,202.00
2024-05-09T00:03:31.592Z,201.33
2024-05-09T00:04:03.388Z,201.00
2024-05-09T00:04:34.976Z,201.67
2024-05-09T00:05:09.209Z,206.67
2024-05-09T00:05:41.822Z,216.00
2024-05-09T00:06:13.512Z,216.00
2024-05-09T00:06:44.937Z,215.00
2024-05-09T00:07:16.308Z,214.33
2024-05-09T00:07:47.730Z,214.67
2024-05-09T00:08:19.230Z,215.00
2024-05-09T00:08:50.652Z,215.00
2024-05-09T00:09:22.036Z,216.00
2024-05-09T00:09:53.118Z,217.00
2024-05-09T00:10:33.192Z,216.67
2024-05-09T00:11:08.251Z,215.00
2024-05-09T00:11:39.756Z,213.33
2024-05-09T00:12:11.311Z,213.00
2024-05-09T00:12:42.709Z,213.00
2024-05-09T00:13:14.092Z,212.33
2024-05-09T00:13:46.218Z,211.67
2024-05-09T00:14:17.728Z,211.00
2024-05-09T00:14:49.099Z,211.67
2024-05-09T00:15:20.502Z,212.00
2024-05-09T00:15:51.919Z,211.00
2024-05-09T00:16:23.285Z,210.33
2024-05-09T00:16:55.142Z,208.67
2024-05-09T00:17:26.803Z,206.33
2024-05-09T00:17:58.269Z,206.00
2024-05-09T00:18:32.212Z,206.00
2024-05-09T00:19:03.818Z,206.33
2024-05-09T00:19:35.362Z,207.00
2024-05-09T00:20:14.130Z,207.00
2024-05-09T00:20:51.790Z,210.00
2024-05-09T00:21:23.277Z,212.00
2024-05-09T00:21:54.802Z,212.00
2024-05-09T00:22:26.154Z,212.67
2024-05-09T00:22:57.568Z,213.00
2024-05-09T00:23:29.119Z,212.00
2024-05-09T00:24:00.362Z,211.00
2024-05-09T00:24:31.784Z,207.33
2024-05-09T00:25:03.269Z,206.33
2024-05-09T00:25:35.043Z,206.33
2024-05-09T00:26:06.805Z,205.67
2024-05-09T00:26:38.248Z,203.33
2024-05-09T00:27:12.684Z,203.00
2024-05-09T00:27:44.597Z,203.00
2024-05-09T00:28:15.944Z,202.33
2024-05-09T00:28:47.385Z,202.67
2024-05-09T00:29:18.846Z,202.33
2024-05-09T00:29:50.247Z,197.33
2024-05-09T00:30:31.031Z,186.00
2024-05-09T00:31:05.762Z,178.33
2024-05-09T00:31:37.158Z,177.33
2024-05-09T00:32:08.751Z,174.67
2024-05-09T00:32:40.308Z,175.00
2024-05-09T00:33:12.161Z,177.67
2024-05-09T00:33:43.871Z,174.00
2024-05-09T00:34:15.431Z,169.00
2024-05-09T00:34:46.959Z,168.33
2024-05-09T00:35:18.394Z,172.00
2024-05-09T00:35:49.873Z,171.00
2024-05-09T00:36:21.294Z,170.00
2024-05-09T00:36:52.682Z,170.67
2024-05-09T00:37:24.108Z,166.33
2024-05-09T00:37:55.588Z,165.67
2024-05-09T00:38:26.727Z,165.33
2024-05-09T00:38:58.124Z,164.67
2024-05-09T00:39:29.452Z,167.00
2024-05-09T00:40:00.805Z,167.33
2024-05-09T00:40:39.440Z,167.00
2024-05-09T00:41:15.156Z,162.67
2024-05-09T00:41:47.685Z,162.00
2024-05-09T00:42:19.071Z,162.67
2024-05-09T00:42:50.441Z,162.00
2024-05-09T00:43:21.801Z,158.33
2024-05-09T00:43:53.225Z,157.00
2024-05-09T00:44:24.730Z,154.67
2024-05-09T00:44:56.226Z,152.00
2024-05-09T00:45:27.578Z,152.67
2024-05-09T00:46:00.887Z,154.33
2024-05-09T00:46:32.275Z,155.33
2024-05-09T00:47:04.040Z,155.67
2024-05-09T00:47:35.872Z,154.00
2024-05-09T00:48:09.734Z,151.33
2024-05-09T00:48:42.139Z,149.33
2024-05-09T00:49:13.824Z,147.00
2024-05-09T00:49:45.396Z,146.33
2024-05-09T00:50:22.945Z,149.00
2024-05-09T00:51:02.119Z,151.00
2024-05-09T00:51:33.634Z,152.00
2024-05-09T00:52:05.919Z,153.33
2024-05-09T00:52:37.708Z,157.67
2024-05-09T00:53:13.724Z,159.67
2024-05-09T00:53:45.023Z,161.67
2024-05-09T00:54:18.703Z,166.00
2024-05-09T00:54:50.061Z,167.00
2024-05-09T00:55:22.798Z,167.00
2024-05-09T00:55:55.646Z,166.00
2024-05-09T00:56:27.337Z,165.00
2024-05-09T00:57:00.986Z,165.00
2024-05-09T00:57:32.436Z,165.00
2024-05-09T00:58:04.450Z,164.67
2024-05-09T00:58:35.887Z,164.00
2024-05-09T00:59:07.662Z,162.67
2024-05-09T00:59:39.699Z,156.33
2024-05-09T01:00:22.389Z,151.67
2024-05-09T01:01:01.947Z,153.00
2024-05-09T01:01:34.002Z,153.00
2024-05-09T01:02:05.847Z,153.67
2024-05-09T01:02:38.221Z,156.00
2024-05-09T01:03:11.865Z,157.00
2024-05-09T01:03:46.635Z,157.00
2024-05-09T01:04:19.623Z,157.00
2024-05-09T01:04:52.184Z,153.67
2024-05-09T01:05:23.652Z,141.00
2024-05-09T01:05:55.129Z,128.67
2024-05-09T01:06:26.619Z,127.00
2024-05-09T01:06:58.041Z,128.33
2024-05-09T01:07:29.504Z,126.67
2024-05-09T01:08:00.874Z,111.67
2024-05-09T01:08:32.498Z,106.67
2024-05-09T01:09:03.954Z,110.00
2024-05-09T01:09:35.287Z,111.33
2024-05-09T01:10:11.760Z,105.67
2024-05-09T01:10:49.072Z,90.67
2024-05-09T01:11:20.580Z,90.00
2024-05-09T01:11:52.070Z,91.00
2024-05-09T01:12:23.842Z,90.33
2024-05-09T01:12:55.302Z,91.67
2024-05-09T01:13:26.667Z,103.00
2024-05-09T01:13:58.081Z,108.33
2024-05-09T01:14:29.598Z,107.67
2024-05-09T01:15:01.107Z,108.00
2024-05-09T01:15:33.496Z,107.00
2024-05-09T01:16:05.033Z,105.33
2024-05-09T01:16:36.737Z,105.67
2024-05-09T01:17:08.245Z,107.67
2024-05-09T01:17:40.189Z,109.00
2024-05-09T01:18:13.283Z,114.33
2024-05-09T01:18:45.437Z,123.33
2024-05-09T01:19:25.659Z,128.67
2024-05-09T01:19:57.158Z,128.33
2024-05-09T01:20:37.539Z,127.67
2024-05-09T01:21:13.480Z,125.00
2024-05-09T01:21:44.697Z,124.33
2024-05-09T01:22:16.094Z,124.00
2024-05-09T01:22:47.723Z,124.00
2024-05-09T01:23:19.180Z,124.67
2024-05-09T01:23:50.585Z,125.67
2024-05-09T01:24:21.953Z,130.00
2024-05-09T01:24:53.364Z,132.00
2024-05-09T01:25:24.703Z,131.33
2024-05-09T01:25:56.121Z,133.33
2024-05-09T01:26:27.622Z,140.33
2024-05-09T01:26:59.054Z,145.67
2024-05-09T01:27:30.560Z,144.00
2024-05-09T01:28:01.901Z,143.00
2024-05-09T01:28:33.240Z,140.33
2024-05-09T01:29:04.688Z,139.33
2024-05-09T01:29:36.167Z,140.00
2024-05-09T01:30:09.677Z,145.00
2024-05-09T01:30:45.838Z,149.67
2024-05-09T01:31:17.234Z,147.67
2024-05-09T01:31:50.592Z,153.00
2024-05-09T01:32:22.360Z,156.33
2024-05-09T01:32:54.055Z,160.67
2024-05-09T01:33:25.995Z,158.67
2024-05-09T01:33:57.652Z,153.00
2024-05-09T01:34:29.079Z,147.00
2024-05-09T01:35:00.517Z,137.33
2024-05-09T01:35:32.059Z,133.00
2024-05-09T01:36:03.546Z,131.67
2024-05-09T01:36:34.974Z,129.67
2024-05-09T01:37:06.370Z,124.00
2024-05-09T01:37:39.245Z,119.00
2024-05-09T01:38:11.992Z,117.00
2024-05-09T01:38:43.413Z,116.67
2024-05-09T01:39:14.914Z,117.00
2024-05-09T01:39:46.257Z,117.67
2024-05-09T01:40:22.134Z,118.67
2024-05-09T01:40:56.862Z,120.33
2024-05-09T01:41:28.403Z,121.00
2024-05-09T01:41:59.971Z,122.00
2024-05-09T01:42:31.331Z,123.33
2024-05-09T01:43:02.702Z,124.67
2024-05-09T01:43:34.038Z,125.00
2024-05-09T01:44:05.451Z,125.00
2024-05-09T01:44:36.986Z,125.67
2024-05-09T01:45:08.798Z,128.00
2024-05-09T01:45:40.631Z,130.33
2024-05-09T01:46:14.189Z,132.00
2024-05-09T01:46:45.643Z,135.33
2024-05-09T01:47:17.224Z,143.00
2024-05-09T01:47:48.844Z,146.67
2024-05-09T01:48:20.482Z,146.67
2024-05-09T01:48:52.093Z,146.67
2024-05-09T01:49:23.548Z,146.00
2024-05-09T01:49:54.903Z,145.00
2024-05-09T01:50:37.144Z,145.00
2024-05-09T01:51:12.156Z,144.33
2024-05-09T01:51:43.703Z,143.33
2024-05-09T01:52:15.078Z,142.00
2024-05-09T01:52:46.530Z,141.00
2024-05-09T01:53:17.760Z,141.00
2024-05-09T01:53:49.032Z,140.67
2024-05-09T01:54:20.169Z,140.00
2024-05-09T01:54:51.613Z,139.33
2024-05-09T01:55:23.020Z,138.67
2024-05-09T01:55:54.378Z,137.67
2024-05-09T01:56:25.532Z,137.00
2024-05-09T01:56:56.895Z,137.00
2024-05-09T01:57:28.315Z,137.00
2024-05-09T01:57:59.693Z,137.00
2024-05-09T01:58:31.030Z,137.00
2024-05-09T01:59:02.518Z,137.00
2024-05-09T01:59:33.981Z,137.00
2024-05-09T02:00:07.650Z,136.33
2024-05-09T02:00:41.942Z,132.33
2024-05-09T02:01:14.331Z,128.33
2024-05-09T02:01:56.436Z,125.00
2024-05-09T02:02:29.288Z,117.33
2024-05-09T02:03:01.013Z,103.00
2024-05-09T02:03:32.742Z,100.33
2024-05-09T02:04:04.656Z,93.67
2024-05-09T02:04:36.266Z,91.67
2024-05-09T02:05:07.870Z,86.67
2024-05-09T02:05:39.484Z,88.33
2024-05-09T02:06:11.263Z,95.33
2024-05-09T02:06:42.926Z,93.67
2024-05-09T02:07:14.612Z,91.33
2024-05-09T02:07:45.962Z,94.67
2024-05-09T02:08:19.460Z,97.67
2024-05-09T02:08:51.144Z,93.67
2024-05-09T02:09:22.613Z,95.67
2024-05-09T02:09:53.937Z,98.33
2024-05-09T02:10:32.049Z,99.67
2024-05-09T02:11:04.661Z,100.33
2024-05-09T02:11:43.102Z,101.00
2024-05-09T02:12:14.693Z,102.33
2024-05-09T02:12:46.230Z,103.33
2024-05-09T02:13:17.653Z,104.00
2024-05-09T02:13:49.058Z,103.67
2024-05-09T02:14:20.472Z,102.33
2024-05-09T02:14:52.060Z,101.00
2024-05-09T02:15:23.213Z,100.00
2024-05-09T02:15:55.201Z,95.00
2024-05-09T02:16:26.599Z,86.33
2024-05-09T02:16:58.100Z,84.67
2024-05-09T02:17:29.622Z,87.67
2024-05-09T02:18:01.439Z,89.67
2024-05-09T02:18:32.706Z,89.00
2024-05-09T02:19:05.183Z,85.33
2024-05-09T02:19:36.674Z,75.67
2024-05-09T02:20:10.719Z,68.00
2024-05-09T02:20:44.944Z,68.33
2024-05-09T02:21:16.409Z,68.67
2024-05-09T02:21:47.781Z,71.00
2024-05-09T02:22:19.163Z,75.00
2024-05-09T02:22:50.624Z,77.67
2024-05-09T02:23:22.051Z,78.33
2024-05-09T02:23:53.522Z,78.67
2024-05-09T02:24:24.913Z,77.00
2024-05-09T02:24:56.288Z,73.00
2024-05-09T02:25:27.667Z,68.67
2024-05-09T02:25:59.128Z,68.00
2024-05-09T02:26:30.350Z,64.67
2024-05-09T02:27:01.755Z,58.00
2024-05-09T02:27:32.934Z,54.00
2024-05-09T02:28:04.668Z,51.00
2024-05-09T02:28:35.802Z,50.00
2024-05-09T02:29:07.204Z,50.67
2024-05-09T02:29:38.644Z,55.33
2024-05-09T02:30:18.619Z,57.33
2024-05-09T02:30:57.351Z,57.00
2024-05-09T02:31:28.767Z,57.00
2024-05-09T02:32:00.290Z,54.67
2024-05-09T02:32:31.970Z,49.33
2024-05-09T02:33:03.706Z,46.33
2024-05-09T02:33:35.364Z,43.00
2024-05-09T02:34:06.945Z,41.33
2024-05-09T02:34:38.550Z,41.67
2024-05-09T02:35:10.236Z,40.67
2024-05-09T02:35:42.791Z,43.00
2024-05-09T02:36:14.898Z,43.33
2024-05-09T02:36:46.073Z,45.00
2024-05-09T02:37:17.462Z,46.00
2024-05-09T02:37:48.620Z,46.33
2024-05-09T02:38:20.156Z,47.00
2024-05-09T02:38:51.618Z,47.00
2024-05-09T02:39:22.994Z,47.00
2024-05-09T02:39:54.415Z,47.00
2024-05-09T02:40:33.743Z,47.00
2024-05-09T02:41:08.981Z,46.33
2024-05-09T02:41:40.120Z,46.00
2024-05-09T02:42:11.616Z,45.67
2024-05-09T02:42:42.739Z,43.33
2024-05-09T02:43:13.851Z,38.33
2024-05-09T02:43:45.257Z,35.67
2024-05-09T02:44:16.637Z,33.00
2024-05-09T02:44:48.000Z,33.00
2024-05-09T02:45:19.389Z,32.33
2024-05-09T02:45:50.773Z,31.00
2024-05-09T02:46:21.896Z,32.00
2024-05-09T02:46:53.256Z,33.33
2024-05-09T02:47:24.846Z,33.33
2024-05-09T02:47:56.249Z,32.67
2024-05-09T02:48:27.920Z,29.00
2024-05-09T02:48:59.428Z,24.33
2024-05-09T02:49:30.920Z,21.33
2024-05-09T02:50:02.397Z,19.33
2024-05-09T02:50:38.392Z,19.00
2024-05-09T02:51:11.624Z,19.00
2024-05-09T02:51:43.058Z,18.33
2024-05-09T02:52:16.980Z,17.33
2024-05-09T02:52:48.139Z,16.67
2024-05-09T02:53:19.550Z,15.33
2024-05-09T02:53:50.982Z,13.67
2024-05-09T02:54:22.364Z,13.00
2024-05-09T02:54:53.499Z,14.00
2024-05-09T02:55:24.603Z,13.67
2024-05-09T02:55:56.021Z,13.00
2024-05-09T02:56:27.555Z,12.67
2024-05-09T02:56:58.951Z,12.00
2024-05-09T02:57:30.288Z,11.33
2024-05-09T02:58:01.661Z,11.00
2024-05-09T02:58:33.124Z,11.00
2024-05-09T02:59:04.630Z,11.00
2024-05-09T02:59:36.034Z,11.00
2024-05-09T03:00:15.022Z,11.00
2024-05-09T03:00:50.204Z,11.00
2024-05-09T03:01:21.607Z,11.00
2024-05-09T03:01:53.019Z,11.00
2024-05-09T03:02:25.915Z,13.33
2024-05-09T03:02:57.559Z,21.00
2024-05-09T03:03:29.267Z,25.67
2024-05-09T03:04:00.778Z,26.00
2024-05-09T03:04:32.428Z,26.33
2024-05-09T03:05:04.191Z,26.00
2024-05-09T03:05:35.810Z,25.00
2024-05-09T03:06:07.205Z,23.67
2024-05-09T03:06:42.256Z,21.67
2024-05-09T03:07:13.668Z,21.00
2024-05-09T03:07:45.072Z,21.00
2024-05-09T03:08:16.532Z,20.33
2024-05-09T03:08:48.025Z,19.00
2024-05-09T03:09:20.440Z,18.00
2024-05-09T03:09:51.858Z,17.67
2024-05-09T03:10:28.357Z,16.67
2024-05-09T03:11:00.434Z,17.00
2024-05-09T03:11:31.934Z,18.00
2024-05-09T03:12:03.679Z,18.00
2024-05-09T03:12:37.873Z,17.00
2024-05-09T03:13:12.548Z,16.33
2024-05-09T03:13:45.054Z,16.00
2024-05-09T03:14:18.415Z,15.33
2024-05-09T03:14:49.767Z,15.00
2024-05-09T03:15:21.651Z,15.00
2024-05-09T03:15:53.044Z,15.33
2024-05-09T03:16:24.620Z,16.00
2024-05-09T03:16:55.869Z,17.00
2024-05-09T03:17:27.481Z,24.67
2024-05-09T03:17:59.956Z,25.33
2024-05-09T03:18:31.602Z,25.67
2024-05-09T03:19:03.129Z,36.00
2024-05-09T03:19:35.615Z,34.33
2024-05-09T03:20:17.019Z,32.00
2024-05-09T03:20:52.025Z,35.33
2024-05-09T03:21:23.432Z,33.33
2024-05-09T03:21:54.813Z,32.33
2024-05-09T03:22:26.990Z,33.00
2024-05-09T03:22:58.395Z,33.33
2024-05-09T03:23:29.567Z,33.67
2024-05-09T03:24:00.687Z,37.00
2024-05-09T03:24:32.061Z,43.67
2024-05-09T03:25:03.829Z,41.33
2024-05-09T03:25:35.179Z,39.33
2024-05-09T03:26:14.000Z,38.00
2024-05-09T03:26:45.928Z,37.00
2024-05-09T03:27:17.367Z,35.67
2024-05-09T03:27:48.754Z,33.00
2024-05-09T03:28:20.090Z,30.33
2024-05-09T03:28:51.520Z,31.33
2024-05-09T03:29:22.972Z,36.67
2024-05-09T03:29:54.383Z,37.00
2024-05-09T03:30:36.024Z,35.67
2024-05-09T03:31:12.478Z,34.33
2024-05-09T03:31:44.096Z,33.33
2024-05-09T03:32:15.414Z,31.33
2024-05-09T03:32:47.096Z,29.33
2024-05-09T03:33:20.132Z,27.33
2024-05-09T03:33:52.506Z,26.00
2024-05-09T03:34:24.068Z,26.00
2024-05-09T03:34:55.496Z,26.33
2024-05-09T03:35:26.943Z,27.00
2024-05-09T03:35:58.392Z,27.00
2024-05-09T03:36:29.772Z,26.67
2024-05-09T03:37:00.917Z,25.67
2024-05-09T03:37:32.287Z,25.00
2024-05-09T03:38:03.949Z,25.00
2024-05-09T03:38:39.074Z,25.00
2024-05-09T03:39:10.923Z,26.00
2024-05-09T03:39:42.312Z,29.33
2024-05-09T03:40:20.725Z,30.00
2024-05-09T03:40:55.243Z,30.00
2024-05-09T03:41:26.725Z,34.00
2024-05-09T03:41:58.224Z,69.00
2024-05-09T03:42:29.556Z,79.67
2024-05-09T03:43:00.646Z,77.33
2024-05-09T03:43:32.038Z,61.67
2024-05-09T03:44:03.951Z,53.00
2024-05-09T03:44:35.393Z,51.33
2024-05-09T03:45:07.156Z,50.67
2024-05-09T03:45:38.592Z,49.33
2024-05-09T03:46:09.965Z,47.00
2024-05-09T03:46:41.305Z,45.33
2024-05-09T03:47:12.472Z,43.00
2024-05-09T03:47:44.111Z,39.00
2024-05-09T03:48:16.120Z,37.00
2024-05-09T03:48:47.729Z,37.00
2024-05-09T03:49:19.518Z,36.67
2024-05-09T03:49:51.026Z,34.67
2024-05-09T03:50:29.822Z,29.67
2024-05-09T03:51:06.065Z,27.00
2024-05-09T03:51:37.394Z,26.67
2024-05-09T03:52:08.754Z,25.00
2024-05-09T03:52:40.120Z,22.33
2024-05-09T03:53:13.133Z,20.67
2024-05-09T03:53:44.655Z,19.33
2024-05-09T03:54:16.011Z,17.33
2024-05-09T03:54:47.348Z,15.00
2024-05-09T03:55:18.751Z,12.67
2024-05-09T03:55:50.153Z,11.00
2024-05-09T03:56:21.327Z,10.00
2024-05-09T03:56:53.334Z,10.00
2024-05-09T03:57:24.693Z,10.00
2024-05-09T03:57:56.277Z,10.00
2024-05-09T03:58:27.579Z,10.67
2024-05-09T03:58:58.961Z,11.67
2024-05-09T03:59:30.402Z,12.00
2024-05-09T04:00:02.816Z,12.00
2024-05-09T04:00:38.472Z,12.00
2024-05-09T04:01:11.411Z,13.00
2024-05-09T04:01:43.177Z,13.00
2024-05-09T04:02:14.703Z,13.67
2024-05-09T04:02:47.039Z,14.00
2024-05-09T04:03:18.926Z,14.00
2024-05-09T04:03:51.217Z,14.00
2024-05-09T04:04:22.732Z,13.33
2024-05-09T04:04:54.187Z,13.00
2024-05-09T04:05:25.950Z,13.00
2024-05-09T04:05:57.498Z,13.00
2024-05-09T04:06:28.841Z,13.00
2024-05-09T04:06:59.937Z,13.00
2024-05-09T04:07:32.219Z,13.00
2024-05-09T04:08:03.985Z,14.33
2024-05-09T04:08:35.752Z,15.33
2024-05-09T04:09:07.219Z,16.00
2024-05-09T04:09:38.588Z,16.00
2024-05-09T04:10:17.017Z,16.67
2024-05-09T04:10:55.318Z,17.33
2024-05-09T04:11:26.882Z,18.00
2024-05-09T04:11:58.523Z,19.33
2024-05-09T04:12:30.005Z,21.33
2024-05-09T04:13:02.482Z,22.67
2024-05-09T04:13:34.164Z,24.00
2024-05-09T04:14:05.270Z,25.33
2024-05-09T04:14:36.732Z,27.00
2024-05-09T04:15:11.190Z,29.00
2024-05-09T04:15:44.142Z,31.00
2024-05-09T04:16:15.552Z,31.00
2024-05-09T04:16:46.934Z,31.00
2024-05-09T04:17:18.108Z,31.00
2024-05-09T04:17:50.408Z,30.33
2024-05-09T04:18:21.695Z,30.00
2024-05-09T04:18:52.945Z,30.00
2024-05-09T04:19:24.501Z,30.00
2024-05-09T04:19:56.046Z,30.00
2024-05-09T04:20:36.525Z,31.00
2024-05-09T04:21:10.766Z,31.00
2024-05-09T04:21:42.341Z,31.00
2024-05-09T04:22:13.706Z,31.00
2024-05-09T04:22:45.186Z,31.00
2024-05-09T04:23:16.653Z,31.33
2024-05-09T04:23:48.101Z,33.33
2024-05-09T04:24:19.524Z,37.67
2024-05-09T04:24:51.822Z,38.33
2024-05-09T04:25:23.181Z,38.00
2024-05-09T04:25:54.793Z,37.33
2024-05-09T04:26:26.277Z,38.33
2024-05-09T04:26:57.569Z,38.67
2024-05-09T04:27:28.957Z,38.00
2024-05-09T04:28:00.136Z,37.33
2024-05-09T04:28:31.243Z,36.33
2024-05-09T04:29:02.686Z,36.00
2024-05-09T04:29:37.030Z,35.00
2024-05-09T04:30:15.449Z,35.00
2024-05-09T04:30:53.090Z,35.00
2024-05-09T04:31:24.216Z,34.33
2024-05-09T04:31:55.618Z,33.33
2024-05-09T04:32:27.235Z,33.00
2024-05-09T04:32:58.814Z,32.67
2024-05-09T04:33:30.561Z,31.33
2024-05-09T04:34:03.687Z,29.67
2024-05-09T04:34:35.685Z,28.33
2024-05-09T04:35:06.868Z,27.00
2024-05-09T04:35:38.403Z,26.67
2024-05-09T04:36:10.145Z,27.00
2024-05-09T04:36:43.958Z,30.33
2024-05-09T04:37:16.149Z,89.67
2024-05-09T04:37:48.131Z,107.33
2024-05-09T04:38:19.554Z,65.00
2024-05-09T04:38:50.998Z,55.00
2024-05-09T04:39:22.389Z,51.67
2024-05-09T04:39:54.003Z,46.00
2024-05-09T04:40:32.864Z,42.00
2024-05-09T04:41:07.059Z,39.33
2024-05-09T04:41:38.568Z,38.00
2024-05-09T04:42:09.667Z,36.33
2024-05-09T04:42:41.044Z,34.33
2024-05-09T04:43:18.248Z,34.00
2024-05-09T04:43:49.837Z,34.00
2024-05-09T04:44:21.280Z,33.67
2024-05-09T04:44:55.607Z,32.00
2024-05-09T04:45:28.932Z,30.00
2024-05-09T04:46:00.444Z,28.67
2024-05-09T04:46:31.781Z,27.33
2024-05-09T04:47:03.378Z,26.33
2024-05-09T04:47:34.897Z,26.00
2024-05-09T04:48:07.000Z,25.33
2024-05-09T04:48:38.591Z,25.00
2024-05-09T04:49:09.890Z,25.33
2024-05-09T04:49:41.536Z,26.00
2024-05-09T04:50:21.151Z,26.00
2024-05-09T04:51:01.529Z,24.67
2024-05-09T04:51:34.461Z,23.33
2024-05-09T04:52:05.626Z,22.33
2024-05-09T04:52:36.974Z,21.00
2024-05-09T04:53:09.906Z,20.33
2024-05-09T04:53:42.698Z,20.00
2024-05-09T04:54:26.013Z,20.00
2024-05-09T04:55:05.440Z,20.00
2024-05-09T04:55:36.996Z,20.67
2024-05-09T04:56:08.578Z,21.00
2024-05-09T04:56:40.035Z,22.00
2024-05-09T04:57:11.554Z,22.00
2024-05-09T04:57:42.950Z,22.00
2024-05-09T04:58:14.298Z,21.00
2024-05-09T04:58:45.500Z,21.00
2024-05-09T04:59:16.875Z,21.33
2024-05-09T04:59:48.314Z,22.00
2024-05-09T05:00:28.612Z,22.33
2024-05-09T05:01:06.461Z,24.67
2024-05-09T05:01:37.875Z,26.33
2024-05-09T05:02:09.193Z,29.00
2024-05-09T05:02:40.713Z,30.00
2024-05-09T05:03:14.808Z,30.67
2024-05-09T05:03:47.641Z,31.67
2024-05-09T05:04:19.185Z,32.00
2024-05-09T05:04:50.665Z,33.33
2024-05-09T05:05:22.173Z,38.33
2024-05-09T05:05:53.608Z,49.67
2024-05-09T05:06:25.047Z,58.33
2024-05-09T05:06:58.366Z,56.33
2024-05-09T05:07:31.084Z,50.00
2024-05-09T05:08:02.487Z,49.00
2024-05-09T05:08:34.101Z,49.00
2024-05-09T05:09:05.564Z,48.33
2024-05-09T05:09:36.927Z,47.00
2024-05-09T05:10:43.303Z,45.33
2024-05-09T05:11:14.994Z,42.33
2024-05-09T05:11:46.579Z,39.67
2024-05-09T05:12:36.489Z,38.67
2024-05-09T05:13:15.391Z,38.00
2024-05-09T05:13:46.779Z,37.67
2024-05-09T05:14:18.263Z,37.00
2024-05-09T05:14:49.684Z,37.00
2024-05-09T05:15:21.495Z,38.00
2024-05-09T05:15:54.704Z,39.67
2024-05-09T05:16:26.091Z,42.67
2024-05-09T05:16:57.528Z,47.33
2024-05-09T05:17:29.166Z,47.67
2024-05-09T05:18:00.872Z,46.67
2024-05-09T05:18:32.684Z,45.67
2024-05-09T05:19:05.312Z,45.00
2024-05-09T05:19:38.883Z,44.00
2024-05-09T05:20:12.653Z,40.67
2024-05-09T05:20:46.819Z,36.00
2024-05-09T05:21:18.412Z,33.67
2024-05-09T05:21:49.838Z,33.00
2024-05-09T05:22:21.215Z,33.67
2024-05-09T05:22:52.637Z,34.00
2024-05-09T05:23:24.221Z,34.00
2024-05-09T05:23:55.727Z,33.67
2024-05-09T05:24:27.138Z,34.00
2024-05-09T05:24:58.460Z,34.00
2024-05-09T05:25:29.788Z,34.67
2024-05-09T05:26:01.218Z,35.00
2024-05-09T05:26:33.344Z,35.00
2024-05-09T05:27:04.970Z,35.00
2024-05-09T05:27:37.320Z,35.00
2024-05-09T05:28:09.254Z,35.00
2024-05-09T05:28:40.741Z,35.33
2024-05-09T05:29:12.151Z,36.00
2024-05-09T05:29:43.612Z,37.33
2024-05-09T05:30:21.251Z,38.00
2024-05-09T05:30:56.478Z,38.00
2024-05-09T05:31:27.629Z,38.00
2024-05-09T05:31:59.174Z,37.33
2024-05-09T05:32:30.919Z,37.00
2024-05-09T05:33:04.465Z,37.00
2024-05-09T05:33:35.977Z,37.67
2024-05-09T05:34:07.635Z,38.00
2024-05-09T05:34:39.077Z,38.00
2024-05-09T05:35:10.676Z,38.00
2024-05-09T05:35:42.368Z,38.33
2024-05-09T05:36:13.814Z,39.67
2024-05-09T05:36:45.229Z,40.00
2024-05-09T05:37:16.615Z,40.33
2024-05-09T05:37:48.016Z,45.00
2024-05-09T05:38:21.401Z,61.33
2024-05-09T05:38:54.375Z,77.00
2024-05-09T05:39:25.785Z,86.67
2024-05-09T05:39:57.230Z,101.67
2024-05-09T05:40:36.232Z,116.33
2024-05-09T05:41:09.477Z,128.67
2024-05-09T05:41:40.977Z,118.67
2024-05-09T05:42:12.553Z,87.67
2024-05-09T05:42:43.937Z,79.00
2024-05-09T05:43:16.848Z,76.00
2024-05-09T05:43:48.287Z,75.33
2024-05-09T05:44:19.740Z,72.33
2024-05-09T05:44:51.127Z,64.00
2024-05-09T05:45:22.479Z,55.67
2024-05-09T05:45:53.894Z,52.00
2024-05-09T05:46:25.252Z,51.67
2024-05-09T05:46:56.700Z,53.33
2024-05-09T05:47:28.302Z,53.67
2024-05-09T05:48:03.001Z,51.67
2024-05-09T05:48:34.766Z,48.33
2024-05-09T05:49:06.056Z,50.33
2024-05-09T05:49:37.651Z,53.00
2024-05-09T05:50:20.642Z,54.00
2024-05-09T05:51:01.139Z,47.67
2024-05-09T05:51:34.146Z,47.00
2024-05-09T05:52:05.699Z,42.33
2024-05-09T05:52:37.078Z,41.67
2024-05-09T05:53:09.755Z,37.33
2024-05-09T05:53:41.764Z,36.33
2024-05-09T05:54:13.209Z,38.00
2024-05-09T05:54:47.379Z,40.67
2024-05-09T05:55:18.789Z,41.67
2024-05-09T05:55:50.267Z,41.33
2024-05-09T05:56:21.684Z,39.00
2024-05-09T05:56:53.136Z,35.33
2024-05-09T05:57:24.549Z,31.33
2024-05-09T05:57:56.008Z,28.00
2024-05-09T05:58:27.420Z,24.33
2024-05-09T05:58:58.877Z,23.67
2024-05-09T05:59:30.362Z,24.67
2024-05-09T06:00:01.581Z,26.67
2024-05-09T06:00:38.758Z,27.33
2024-05-09T06:01:12.086Z,27.33
2024-05-09T06:01:43.629Z,26.33
2024-05-09T06:02:15.221Z,27.00
2024-05-09T06:02:46.922Z,28.67
2024-05-09T06:03:18.495Z,29.67
2024-05-09T06:03:50.132Z,31.33
2024-05-09T06:04:21.764Z,32.33
2024-05-09T06:04:53.274Z,33.00
2024-05-09T06:05:27.606Z,33.00
2024-05-09T06:06:01.815Z,34.33
2024-05-09T06:06:33.221Z,35.00
2024-05-09T06:07:04.747Z,35.00
2024-05-09T06:07:36.148Z,35.00
2024-05-09T06:08:07.754Z,33.33
2024-05-09T06:08:39.299Z,31.67
2024-05-09T06:09:10.686Z,30.33
2024-05-09T06:09:41.816Z,28.67
2024-05-09T06:10:20.949Z,28.00
2024-05-09T06:10:53.217Z,28.33
2024-05-09T06:11:24.802Z,29.00
2024-05-09T06:11:56.296Z,29.00
2024-05-09T06:12:27.836Z,29.67
2024-05-09T06:12:59.292Z,30.00
2024-05-09T06:13:30.669Z,30.00
2024-05-09T06:14:04.243Z,30.00
2024-05-09T06:14:35.764Z,29.33
2024-05-09T06:15:07.233Z,29.00
2024-05-09T06:15:39.360Z,28.00
2024-05-09T06:16:10.722Z,27.33
2024-05-09T06:16:42.410Z,27.67
2024-05-09T06:17:13.919Z,28.00
2024-05-09T06:17:45.621Z,28.67
2024-05-09T06:18:17.544Z,30.33
2024-05-09T06:18:49.436Z,31.00
2024-05-09T06:19:21.080Z,31.33
2024-05-09T06:19:52.806Z,35.67
2024-05-09T06:20:33.888Z,39.00
2024-05-09T06:21:08.001Z,39.67
2024-05-09T06:21:39.398Z,41.00
2024-05-09T06:22:10.795Z,47.67
2024-05-09T06:22:42.178Z,52.67
2024-05-09T06:23:13.799Z,53.33
2024-05-09T06:23:46.133Z,51.67
2024-05-09T06:24:17.566Z,49.00
2024-05-09T06:24:48.938Z,46.00
2024-05-09T06:25:20.311Z,43.00
2024-05-09T06:25:51.813Z,40.00
2024-05-09T06:26:23.296Z,37.67
2024-05-09T06:26:54.752Z,36.00
2024-05-09T06:27:26.154Z,34.33
2024-05-09T06:27:59.225Z,34.00
2024-05-09T06:28:30.646Z,34.00
2024-05-09T06:29:02.079Z,34.67
2024-05-09T06:29:37.250Z,35.00
2024-05-09T06:30:14.402Z,34.00
2024-05-09T06:30:52.029Z,34.67
2024-05-09T06:31:23.605Z,37.00
2024-05-09T06:31:57.186Z,38.00
2024-05-09T06:32:31.025Z,38.00
2024-05-09T06:33:06.488Z,39.67
2024-05-09T06:33:38.024Z,41.00
2024-05-09T06:34:09.787Z,41.67
2024-05-09T06:34:42.017Z,42.67
2024-05-09T06:35:13.265Z,43.67
2024-05-09T06:35:45.278Z,44.00
2024-05-09T06:36:16.674Z,44.00
2024-05-09T06:36:48.039Z,44.00
2024-05-09T06:37:19.432Z,43.33
2024-05-09T06:37:50.886Z,43.00
2024-05-09T06:38:22.303Z,42.33
2024-05-09T06:38:53.725Z,41.33
2024-05-09T06:39:24.854Z,39.67
2024-05-09T06:39:56.345Z,37.00
2024-05-09T06:40:36.276Z,34.33
2024-05-09T06:41:10.298Z,32.00
2024-05-09T06:41:41.803Z,30.33
2024-05-09T06:42:13.282Z,28.00
2024-05-09T06:42:44.633Z,25.00
2024-05-09T06:43:18.464Z,22.67
2024-05-09T06:43:51.049Z,22.00
2024-05-09T06:44:22.543Z,23.00
2024-05-09T06:44:54.041Z,23.67
2024-05-09T06:45:25.402Z,24.00
2024-05-09T06:45:56.764Z,24.67
2024-05-09T06:46:28.385Z,25.00
2024-05-09T06:47:00.274Z,25.00
2024-05-09T06:47:31.973Z,25.00
2024-05-09T06:48:03.934Z,25.00
2024-05-09T06:48:35.614Z,24.00
2024-05-09T06:49:08.673Z,23.67
2024-05-09T06:49:40.546Z,22.33
2024-05-09T06:50:20.213Z,20.67
2024-05-09T06:50:55.450Z,20.00
2024-05-09T06:51:26.840Z,20.00
2024-05-09T06:51:58.224Z,20.00
2024-05-09T06:52:29.630Z,20.67
2024-05-09T06:53:01.081Z,21.00
2024-05-09T06:53:32.721Z,21.00
2024-05-09T06:54:08.079Z,21.00